This is the latest recevied weather packets stored in our database for station/object N3LF. If no packets are shown the sender has not sent any weather packets the latest 10 day(s).
| Time | Temp. | Humidity | Pressure | Rain* | Wind** | Luminosity | Snow |
|---|---|---|---|---|---|---|---|
| 1777845447 | 21.67° C | 37% | 1018.8 hPa | 0 mm | - | 297 W/m² | - |
| 1777845144 | 21.67° C | 38% | 1018.9 hPa | 0 mm | - | 311 W/m² | - |
| 1777844843 | 21.11° C | 40% | 1019 hPa | 0 mm | - | 326 W/m² | - |
| 1777844539 | 21.11° C | 39% | 1019.2 hPa | 0 mm | - | 341 W/m² | - |
| 1777844237 | 21.67° C | 37% | 1019.1 hPa | 0 mm | - | 355 W/m² | - |
| 1777843934 | 21.11° C | 38% | 1019.3 hPa | 0 mm | - | 369 W/m² | - |
| 1777843631 | 20.56° C | 37% | 1019.4 hPa | 0 mm | - | 383 W/m² | - |
| 1777843328 | 20.56° C | 39% | 1019.4 hPa | 0 mm | - | 398 W/m² | - |
| 1777843026 | 20.56° C | 39% | 1019.5 hPa | 0 mm | - | 412 W/m² | - |
| 1777842721 | 20.56° C | 37% | 1019.5 hPa | 0 mm | - | 428 W/m² | - |
| 1777842418 | 20° C | 36% | 1019.7 hPa | 0 mm | - | 439 W/m² | - |
| 1777842115 | 20.56° C | 36% | 1019.7 hPa | 0 mm | - | 453 W/m² | - |
| 1777841810 | 21.11° C | 35% | 1019.8 hPa | 0 mm | - | 464 W/m² | - |
| 1777841506 | 21.11° C | 36% | 1020 hPa | 0 mm | - | 480 W/m² | - |
| 1777841203 | 20.56° C | 37% | 1020.2 hPa | 0 mm | - | 493 W/m² | - |
| 1777840901 | 21.11° C | 36% | 1020.1 hPa | 0 mm | - | 504 W/m² | - |
| 1777840598 | 20.56° C | 37% | 1020.2 hPa | 0 mm | - | 518 W/m² | - |
| 1777840295 | 20.56° C | 38% | 1020.5 hPa | 0 mm | - | 532 W/m² | - |
| 1777839993 | 20.56° C | 35% | 1020.4 hPa | 0 mm | - | 542 W/m² | - |
| 1777839691 | 20.56° C | 35% | 1020.3 hPa | 0 mm | - | 552 W/m² | - |
| 1777839388 | 21.11° C | 36% | 1020.6 hPa | 0 mm | - | 562 W/m² | - |
| 1777839086 | 20° C | 37% | 1020.7 hPa | 0 mm | - | 576 W/m² | - |
| 1777838781 | 20.56° C | 38% | 1020.9 hPa | 0 mm | - | 588 W/m² | - |
| 1777838478 | 20° C | 37% | 1020.8 hPa | 0 mm | - | 599 W/m² | - |
| 1777838175 | 21.11° C | 36% | 1020.9 hPa | 0 mm | - | 605 W/m² | - |
* Rain latest hour (hover to see other rain measurements)
** Current wind speed in m/s (hover to see current wind gust speed)